Terminal Aerodrome Forecast
Issued by NWS Cleveland, OH

Home | Current Version | Previous Version | Graphics & Text | Print | Product List | Glossary On
Versions: 1 2 3 4 5 6 7 8 9 10 11 12 13 14 15 16 17 18 19 20
000
FTUS41 KCLE 212300
TAFERI
TAF
KERI 212340Z 2200/2224 21008KT P6SM SCT150 OVC250
     FM220800 23010KT P6SM -SHRA BKN030 OVC060
      TEMPO 2208/2212 5SM -SHRA OVC018
     FM221200 29012KT P6SM OVC015
     FM221600 28015G25KT P6SM OVC015=

USA.gov is the U.S. government's official web portal to all federal, state and local government web resources and services.